createdAt,value
2022-08-01T00:03:20.284Z,12.5
2022-08-01T00:18:19.400Z,12.5
2022-08-01T00:33:22.619Z,12.5
2022-08-01T00:48:20.786Z,12.5
2022-08-01T01:04:00.416Z,12.5
2022-08-01T01:18:22.327Z,12.5
2022-08-01T01:33:23.887Z,12.5
2022-08-01T01:48:24.288Z,12.5
2022-08-01T02:03:27.051Z,12.5
2022-08-01T02:18:27.241Z,12.5
2022-08-01T02:33:28.741Z,12.5
2022-08-01T02:48:28.734Z,12.5
2022-08-01T03:03:06.085Z,12.5
2022-08-01T03:18:05.517Z,12.5
2022-08-01T03:33:07.610Z,12.5
2022-08-01T03:48:07.342Z,12.5
2022-08-01T04:03:08.026Z,12.5
2022-08-01T04:18:10.783Z,12.5
2022-08-01T04:33:11.717Z,12.5
2022-08-01T04:48:13.541Z,12.5
2022-08-01T05:03:14.698Z,12.5
2022-08-01T05:18:15.393Z,12.5
2022-08-01T05:33:14.868Z,12.5
2022-08-01T05:48:16.517Z,12.5
2022-08-01T06:03:17.552Z,12.5
2022-08-01T06:18:18.877Z,12.5
2022-08-01T06:33:19.753Z,12.5
2022-08-01T06:48:20.707Z,12.5
2022-08-01T07:03:20.841Z,12.5
2022-08-01T07:18:28.766Z,12.5
2022-08-01T07:33:25.332Z,12.5
2022-08-01T07:48:23.206Z,12.5
2022-08-01T08:03:25.291Z,12.5
2022-08-01T08:18:26.635Z,12.5
2022-08-01T08:33:27.791Z,12.6
2022-08-01T08:48:29.456Z,12.7
2022-08-01T09:03:07.403Z,13.5
2022-08-01T09:18:08.747Z,13.5
2022-08-01T09:33:24.719Z,13.5
2022-08-01T09:48:12.681Z,13.6
2022-08-01T10:03:26.598Z,13.7
2022-08-01T10:18:29.545Z,13.7
2022-08-01T10:33:59.071Z,13.8
2022-08-01T10:48:14.331Z,13.8
2022-08-01T11:03:16.613Z,13.8
2022-08-01T11:18:16.577Z,13.9
2022-08-01T11:33:17.504Z,13.8
2022-08-01T11:48:17.613Z,13.8
2022-08-01T12:03:36.122Z,13.8
2022-08-01T12:18:36.398Z,13.7
2022-08-01T12:33:22.142Z,13.7
2022-08-01T12:48:28.035Z,13.6
2022-08-01T13:03:23.008Z,13.6
2022-08-01T13:18:30.109Z,13.6
2022-08-01T13:33:33.018Z,13.6
2022-08-01T13:48:26.672Z,13.6
2022-08-01T14:03:36.270Z,13.6
2022-08-01T14:18:30.087Z,13.6
2022-08-01T14:33:28.954Z,13.6
2022-08-01T14:48:32.452Z,13.6
2022-08-01T15:03:08.684Z,13.5
2022-08-01T15:18:08.509Z,13.5
2022-08-01T15:33:10.134Z,13.5
2022-08-01T15:48:10.583Z,13.5
2022-08-01T16:03:11.377Z,13.5
2022-08-01T16:18:14.107Z,13.5
2022-08-01T16:34:05.088Z,13.5
2022-08-01T16:48:21.482Z,13.4
2022-08-01T17:04:02.068Z,13.3
2022-08-01T17:18:15.914Z,13.2
2022-08-01T17:33:16.481Z,13.1
2022-08-01T17:48:17.879Z,13
2022-08-01T18:03:45.683Z,13
2022-08-01T18:18:34.896Z,12.9
2022-08-01T18:33:21.524Z,12.9
2022-08-01T18:48:22.386Z,12.8
2022-08-01T19:03:23.314Z,12.8
2022-08-01T19:18:31.150Z,12.7
2022-08-01T19:33:26.325Z,12.7
2022-08-01T19:48:26.061Z,12.7
2022-08-01T20:03:27.627Z,12.6
2022-08-01T20:18:28.137Z,12.6
2022-08-01T20:33:30.497Z,12.6
2022-08-01T20:48:29.358Z,12.6
2022-08-01T21:03:05.540Z,12.4
2022-08-01T21:18:08.000Z,12.5
2022-08-01T21:33:06.816Z,12.5
2022-08-01T21:48:10.116Z,12.5
2022-08-01T22:03:09.287Z,12.5
2022-08-01T22:18:10.057Z,12.5
2022-08-01T22:33:19.977Z,12.5
2022-08-01T22:48:12.511Z,12.5
2022-08-01T23:03:13.106Z,12.5
2022-08-01T23:18:13.414Z,12.5
2022-08-01T23:33:17.257Z,12.5
2022-08-01T23:48:15.879Z,12.5
